Terminal Aerodrome Forecast
Issued by NWS

Home | Current Version | Previous Version | Text Only | Print | Product List | Glossary On
Versions: 1 2 3 4 5 6 7 8 9 10 11 12 13 14 15
000
FTUS43 KOAX 251400 AAA
TAFBFF
TAF AMD
KBFF 251400Z 2514/2612 VRB04KT P6SM VCSH SCT060 OVC070
     FM251600 04009KT P6SM VCSH SCT005 BKN009
     FM251800 01015G25KT 2SM -SN BR OVC007
     FM260300 36011KT 3SM -SN SCT010 OVC018=

USA.gov is the U.S. government's official web portal to all federal, state and local government web resources and services.